Terminal Aerodrome Forecast
Issued by NWS

Home | Current Version | Previous Version | Text Only | Print | Product List | Glossary On
Versions: 1 2 3 4 5 6 7 8 9 10 11 12 13 14 15 16 17 18 19 20 21 22 23 24 25
000
FTUS41 KPBZ 211100
TAFLBE
TAF
KLBE 211136Z 2112/2212 22005KT P6SM SCT007 OVC010
     FM211500 26008KT P6SM -SHRA OVC015
     FM212200 29008KT P6SM VCSH BKN020=

USA.gov is the U.S. government's official web portal to all federal, state and local government web resources and services.